sensor_id;sensor_type;location;lat;lon;timestamp;pressure;altitude;pressure_sealevel;temperature;humidity
11971;BME280;6045;42.682;23.294;2023-08-07T00:01:59;94112.00;;;20.86;65.32
11971;BME280;6045;42.682;23.294;2023-08-07T00:04:28;94105.31;;;20.70;65.16
11971;BME280;6045;42.682;23.294;2023-08-07T00:06:54;94098.25;;;20.69;65.66
11971;BME280;6045;42.682;23.294;2023-08-07T00:09:21;94100.59;;;20.62;65.48
11971;BME280;6045;42.682;23.294;2023-08-07T00:11:48;94102.59;;;20.70;65.76
11971;BME280;6045;42.682;23.294;2023-08-07T00:14:15;94106.03;;;20.62;65.24
11971;BME280;6045;42.682;23.294;2023-08-07T00:16:42;94100.69;;;20.57;65.85
11971;BME280;6045;42.682;23.294;2023-08-07T00:19:08;94108.66;;;20.53;65.13
11971;BME280;6045;42.682;23.294;2023-08-07T00:21:36;94096.88;;;20.58;65.49
11971;BME280;6045;42.682;23.294;2023-08-07T00:24:04;94106.63;;;20.59;65.63
11971;BME280;6045;42.682;23.294;2023-08-07T00:26:31;94107.44;;;20.59;65.40
11971;BME280;6045;42.682;23.294;2023-08-07T00:28:58;94109.22;;;20.64;65.41
11971;BME280;6045;42.682;23.294;2023-08-07T00:31:25;94105.03;;;20.58;66.29
11971;BME280;6045;42.682;23.294;2023-08-07T00:33:52;94103.91;;;20.59;66.22
11971;BME280;6045;42.682;23.294;2023-08-07T00:36:20;94106.34;;;20.60;66.52
11971;BME280;6045;42.682;23.294;2023-08-07T00:38:49;94111.66;;;20.65;66.07
11971;BME280;6045;42.682;23.294;2023-08-07T00:41:16;94115.06;;;20.71;65.50
11971;BME280;6045;42.682;23.294;2023-08-07T00:43:43;94112.22;;;20.76;65.87
11971;BME280;6045;42.682;23.294;2023-08-07T00:46:11;94108.09;;;20.78;65.74
11971;BME280;6045;42.682;23.294;2023-08-07T00:48:39;94113.03;;;20.76;65.30
11971;BME280;6045;42.682;23.294;2023-08-07T00:51:06;94119.97;;;20.82;65.93
11971;BME280;6045;42.682;23.294;2023-08-07T00:53:33;94122.81;;;20.77;66.39
11971;BME280;6045;42.682;23.294;2023-08-07T00:56:02;94126.31;;;20.78;64.99
11971;BME280;6045;42.682;23.294;2023-08-07T00:58:30;94130.31;;;20.80;66.25
11971;BME280;6045;42.682;23.294;2023-08-07T01:00:57;94127.22;;;20.73;65.08
11971;BME280;6045;42.682;23.294;2023-08-07T01:03:24;94139.00;;;20.69;65.76
11971;BME280;6045;42.682;23.294;2023-08-07T01:05:57;94143.22;;;20.75;65.19
11971;BME280;6045;42.682;23.294;2023-08-07T01:08:24;94142.66;;;20.51;66.45
11971;BME280;6045;42.682;23.294;2023-08-07T01:11:16;94146.56;;;20.44;66.79
11971;BME280;6045;42.682;23.294;2023-08-07T01:13:54;94151.09;;;20.35;67.29
11971;BME280;6045;42.682;23.294;2023-08-07T01:16:28;94150.66;;;20.15;67.54
11971;BME280;6045;42.682;23.294;2023-08-07T01:19:00;94156.66;;;19.98;69.13
11971;BME280;6045;42.682;23.294;2023-08-07T01:21:28;94152.84;;;19.99;68.19
11971;BME280;6045;42.682;23.294;2023-08-07T01:23:56;94150.44;;;19.98;68.53
11971;BME280;6045;42.682;23.294;2023-08-07T01:26:23;94161.09;;;19.94;68.51
11971;BME280;6045;42.682;23.294;2023-08-07T01:28:58;94156.97;;;19.97;68.66
11971;BME280;6045;42.682;23.294;2023-08-07T01:31:29;94152.66;;;20.09;67.95
11971;BME280;6045;42.682;23.294;2023-08-07T01:34:01;94156.88;;;20.02;68.54
11971;BME280;6045;42.682;23.294;2023-08-07T01:36:30;94159.69;;;20.10;67.64
11971;BME280;6045;42.682;23.294;2023-08-07T01:39:02;94147.44;;;19.99;68.30
11971;BME280;6045;42.682;23.294;2023-08-07T01:41:32;94141.59;;;19.92;68.28
11971;BME280;6045;42.682;23.294;2023-08-07T01:44:00;94145.63;;;19.95;69.40
11971;BME280;6045;42.682;23.294;2023-08-07T01:46:27;94146.53;;;19.90;68.07
11971;BME280;6045;42.682;23.294;2023-08-07T01:48:53;94149.22;;;19.90;69.06
11971;BME280;6045;42.682;23.294;2023-08-07T01:51:20;94155.66;;;19.94;69.11
11971;BME280;6045;42.682;23.294;2023-08-07T01:53:49;94152.34;;;19.97;69.79
11971;BME280;6045;42.682;23.294;2023-08-07T01:56:17;94149.41;;;19.94;69.30
11971;BME280;6045;42.682;23.294;2023-08-07T01:58:43;94158.97;;;19.91;69.18
11971;BME280;6045;42.682;23.294;2023-08-07T02:01:10;94155.41;;;19.77;69.85
11971;BME280;6045;42.682;23.294;2023-08-07T02:03:37;94152.59;;;19.68;70.34
11971;BME280;6045;42.682;23.294;2023-08-07T02:06:04;94149.56;;;19.70;69.51
11971;BME280;6045;42.682;23.294;2023-08-07T02:08:30;94151.44;;;19.56;70.05
11971;BME280;6045;42.682;23.294;2023-08-07T02:10:57;94160.88;;;19.58;69.83
11971;BME280;6045;42.682;23.294;2023-08-07T02:13:28;94164.00;;;19.52;70.67
11971;BME280;6045;42.682;23.294;2023-08-07T02:15:54;94167.59;;;19.47;71.17
11971;BME280;6045;42.682;23.294;2023-08-07T02:18:21;94161.22;;;19.38;70.76
11971;BME280;6045;42.682;23.294;2023-08-07T02:20:48;94165.84;;;19.38;70.27
11971;BME280;6045;42.682;23.294;2023-08-07T02:23:15;94172.06;;;19.38;71.52
11971;BME280;6045;42.682;23.294;2023-08-07T02:25:41;94186.13;;;19.40;71.84
11971;BME280;6045;42.682;23.294;2023-08-07T02:28:10;94177.78;;;19.37;70.25
11971;BME280;6045;42.682;23.294;2023-08-07T02:30:38;94182.16;;;19.33;70.82
11971;BME280;6045;42.682;23.294;2023-08-07T02:33:05;94184.31;;;19.36;71.26
11971;BME280;6045;42.682;23.294;2023-08-07T02:35:32;94180.91;;;19.44;70.80
11971;BME280;6045;42.682;23.294;2023-08-07T02:37:59;94179.13;;;19.34;70.01
11971;BME280;6045;42.682;23.294;2023-08-07T02:40:25;94175.09;;;19.32;69.84
11971;BME280;6045;42.682;23.294;2023-08-07T02:42:52;94179.22;;;19.10;70.31
11971;BME280;6045;42.682;23.294;2023-08-07T02:45:19;94171.41;;;19.09;71.14
11971;BME280;6045;42.682;23.294;2023-08-07T02:47:47;94178.13;;;18.93;71.33
11971;BME280;6045;42.682;23.294;2023-08-07T02:50:14;94186.97;;;18.98;70.90
11971;BME280;6045;42.682;23.294;2023-08-07T02:52:41;94189.16;;;18.96;71.33
11971;BME280;6045;42.682;23.294;2023-08-07T02:55:08;94185.25;;;19.07;70.52
11971;BME280;6045;42.682;23.294;2023-08-07T02:57:34;94196.09;;;19.07;70.07
11971;BME280;6045;42.682;23.294;2023-08-07T03:00:01;94188.66;;;19.13;71.13
11971;BME280;6045;42.682;23.294;2023-08-07T03:02:28;94193.28;;;18.94;70.95
11971;BME280;6045;42.682;23.294;2023-08-07T03:04:56;94204.53;;;18.82;71.85
11971;BME280;6045;42.682;23.294;2023-08-07T03:07:23;94200.63;;;18.93;72.68
11971;BME280;6045;42.682;23.294;2023-08-07T03:09:50;94201.31;;;18.99;71.78
11971;BME280;6045;42.682;23.294;2023-08-07T03:12:16;94205.78;;;18.90;71.51
11971;BME280;6045;42.682;23.294;2023-08-07T03:14:43;94203.31;;;18.93;71.86
11971;BME280;6045;42.682;23.294;2023-08-07T03:17:10;94207.50;;;19.04;71.71
11971;BME280;6045;42.682;23.294;2023-08-07T03:19:37;94218.91;;;19.01;72.19
11971;BME280;6045;42.682;23.294;2023-08-07T03:22:05;94210.72;;;19.06;71.36
11971;BME280;6045;42.682;23.294;2023-08-07T03:24:32;94216.19;;;19.01;70.91
11971;BME280;6045;42.682;23.294;2023-08-07T03:26:59;94219.28;;;18.95;71.81
11971;BME280;6045;42.682;23.294;2023-08-07T03:29:25;94218.19;;;18.96;72.10
11971;BME280;6045;42.682;23.294;2023-08-07T03:31:52;94217.94;;;18.92;72.13
11971;BME280;6045;42.682;23.294;2023-08-07T03:34:19;94226.47;;;19.04;71.87
11971;BME280;6045;42.682;23.294;2023-08-07T03:36:46;94239.19;;;19.04;71.49
11971;BME280;6045;42.682;23.294;2023-08-07T03:39:14;94238.38;;;19.03;72.71
11971;BME280;6045;42.682;23.294;2023-08-07T03:41:40;94247.09;;;19.00;71.50
11971;BME280;6045;42.682;23.294;2023-08-07T03:44:07;94251.19;;;18.98;72.25
11971;BME280;6045;42.682;23.294;2023-08-07T03:46:34;94252.97;;;19.07;71.96
11971;BME280;6045;42.682;23.294;2023-08-07T03:49:00;94257.16;;;19.19;71.88
11971;BME280;6045;42.682;23.294;2023-08-07T03:51:27;94260.38;;;19.21;70.80
11971;BME280;6045;42.682;23.294;2023-08-07T03:53:55;94258.09;;;19.28;71.80
11971;BME280;6045;42.682;23.294;2023-08-07T03:56:23;94259.09;;;19.37;71.02
11971;BME280;6045;42.682;23.294;2023-08-07T03:58:50;94259.06;;;19.74;78.73
11971;BME280;6045;42.682;23.294;2023-08-07T04:01:16;94262.00;;;20.42;73.40
11971;BME280;6045;42.682;23.294;2023-08-07T04:03:46;94266.69;;;21.23;72.35
11971;BME280;6045;42.682;23.294;2023-08-07T04:06:13;94266.63;;;21.86;68.73
11971;BME280;6045;42.682;23.294;2023-08-07T04:08:41;94272.16;;;22.47;64.86
11971;BME280;6045;42.682;23.294;2023-08-07T04:11:08;94267.56;;;22.79;61.19
11971;BME280;6045;42.682;23.294;2023-08-07T04:13:37;94267.16;;;23.02;60.40
11971;BME280;6045;42.682;23.294;2023-08-07T04:16:06;94271.88;;;23.19;59.07
11971;BME280;6045;42.682;23.294;2023-08-07T04:18:33;94271.00;;;23.49;57.53
11971;BME280;6045;42.682;23.294;2023-08-07T04:21:00;94275.72;;;23.83;56.33
11971;BME280;6045;42.682;23.294;2023-08-07T04:23:27;94282.00;;;24.09;55.64
11971;BME280;6045;42.682;23.294;2023-08-07T04:25:54;94282.63;;;24.32;54.96
11971;BME280;6045;42.682;23.294;2023-08-07T04:28:21;94285.00;;;24.51;53.95
11971;BME280;6045;42.682;23.294;2023-08-07T04:30:50;94288.97;;;24.70;52.95
11971;BME280;6045;42.682;23.294;2023-08-07T04:33:18;94279.63;;;24.71;52.62
11971;BME280;6045;42.682;23.294;2023-08-07T04:35:45;94285.75;;;24.77;52.55
11971;BME280;6045;42.682;23.294;2023-08-07T04:38:13;94283.84;;;24.77;51.56
11971;BME280;6045;42.682;23.294;2023-08-07T04:40:43;94288.75;;;25.01;52.02
11971;BME280;6045;42.682;23.294;2023-08-07T04:43:10;94284.28;;;25.26;51.13
11971;BME280;6045;42.682;23.294;2023-08-07T04:45:37;94290.84;;;25.33;51.18
11971;BME280;6045;42.682;23.294;2023-08-07T04:48:06;94287.44;;;25.45;50.98
11971;BME280;6045;42.682;23.294;2023-08-07T04:50:33;94292.47;;;25.26;51.97
11971;BME280;6045;42.682;23.294;2023-08-07T04:52:59;94297.47;;;24.86;52.08
11971;BME280;6045;42.682;23.294;2023-08-07T04:55:26;94291.22;;;24.60;53.06
11971;BME280;6045;42.682;23.294;2023-08-07T04:57:53;94290.94;;;24.35;53.66
11971;BME280;6045;42.682;23.294;2023-08-07T05:00:21;94289.00;;;24.53;53.95
11971;BME280;6045;42.682;23.294;2023-08-07T05:02:48;94289.66;;;24.41;52.78
11971;BME280;6045;42.682;23.294;2023-08-07T05:05:16;94292.56;;;24.36;53.43
11971;BME280;6045;42.682;23.294;2023-08-07T05:07:45;94284.38;;;24.02;53.36
11971;BME280;6045;42.682;23.294;2023-08-07T05:10:11;94281.94;;;23.83;56.05
11971;BME280;6045;42.682;23.294;2023-08-07T05:12:38;94276.81;;;23.82;55.31
11971;BME280;6045;42.682;23.294;2023-08-07T05:15:06;94276.34;;;24.14;55.38
11971;BME280;6045;42.682;23.294;2023-08-07T05:17:33;94281.78;;;24.48;53.83
11971;BME280;6045;42.682;23.294;2023-08-07T05:20:00;94276.41;;;24.69;53.26
11971;BME280;6045;42.682;23.294;2023-08-07T05:22:29;94276.41;;;24.86;53.07
11971;BME280;6045;42.682;23.294;2023-08-07T05:24:56;94272.34;;;25.01;53.07
11971;BME280;6045;42.682;23.294;2023-08-07T05:27:22;94270.31;;;24.81;52.40
11971;BME280;6045;42.682;23.294;2023-08-07T05:29:49;94280.56;;;24.92;52.81
11971;BME280;6045;42.682;23.294;2023-08-07T05:32:16;94281.44;;;25.13;53.07
11971;BME280;6045;42.682;23.294;2023-08-07T05:34:43;94285.44;;;25.16;50.35
11971;BME280;6045;42.682;23.294;2023-08-07T05:37:10;94280.94;;;25.20;51.77
11971;BME280;6045;42.682;23.294;2023-08-07T05:39:38;94275.06;;;25.30;52.24
11971;BME280;6045;42.682;23.294;2023-08-07T05:42:05;94286.19;;;25.25;51.25
11971;BME280;6045;42.682;23.294;2023-08-07T05:44:33;94287.56;;;25.10;50.81
11971;BME280;6045;42.682;23.294;2023-08-07T05:46:59;94296.16;;;25.30;51.93
11971;BME280;6045;42.682;23.294;2023-08-07T05:49:26;94285.19;;;25.67;51.25
11971;BME280;6045;42.682;23.294;2023-08-07T05:51:53;94298.19;;;26.00;50.08
11971;BME280;6045;42.682;23.294;2023-08-07T05:54:20;94281.22;;;26.27;49.76
11971;BME280;6045;42.682;23.294;2023-08-07T05:56:48;94284.22;;;26.34;49.22
11971;BME280;6045;42.682;23.294;2023-08-07T05:59:15;94275.56;;;26.44;48.45
11971;BME280;6045;42.682;23.294;2023-08-07T06:01:42;94281.09;;;26.56;48.71
11971;BME280;6045;42.682;23.294;2023-08-07T06:04:09;94280.41;;;26.59;48.65
11971;BME280;6045;42.682;23.294;2023-08-07T06:06:36;94278.91;;;26.50;46.90
11971;BME280;6045;42.682;23.294;2023-08-07T06:09:04;94285.38;;;26.33;49.47
11971;BME280;6045;42.682;23.294;2023-08-07T06:11:32;94274.16;;;26.26;49.50
11971;BME280;6045;42.682;23.294;2023-08-07T06:14:00;94281.22;;;26.27;49.07
11971;BME280;6045;42.682;23.294;2023-08-07T06:16:27;94276.09;;;26.58;48.81
11971;BME280;6045;42.682;23.294;2023-08-07T06:18:54;94278.94;;;26.62;46.53
11971;BME280;6045;42.682;23.294;2023-08-07T06:21:21;94278.22;;;26.53;46.87
11971;BME280;6045;42.682;23.294;2023-08-07T06:23:48;94275.31;;;26.37;47.83
11971;BME280;6045;42.682;23.294;2023-08-07T06:26:17;94272.91;;;25.94;48.72
11971;BME280;6045;42.682;23.294;2023-08-07T06:28:44;94270.00;;;26.20;49.81
11971;BME280;6045;42.682;23.294;2023-08-07T06:31:13;94263.94;;;26.47;47.37
11971;BME280;6045;42.682;23.294;2023-08-07T06:33:47;94271.38;;;26.46;44.43
11971;BME280;6045;42.682;23.294;2023-08-07T06:36:14;94269.44;;;26.06;48.38
11971;BME280;6045;42.682;23.294;2023-08-07T06:38:40;94264.75;;;26.27;48.84
11971;BME280;6045;42.682;23.294;2023-08-07T06:41:07;94269.28;;;26.43;48.35
11971;BME280;6045;42.682;23.294;2023-08-07T06:43:34;94279.84;;;26.86;47.22
11971;BME280;6045;42.682;23.294;2023-08-07T06:46:02;94279.78;;;26.74;43.41
11971;BME280;6045;42.682;23.294;2023-08-07T06:48:30;94286.47;;;26.97;46.48
11971;BME280;6045;42.682;23.294;2023-08-07T06:50:59;94281.22;;;26.92;44.44
11971;BME280;6045;42.682;23.294;2023-08-07T06:53:26;94287.84;;;26.91;42.13
11971;BME280;6045;42.682;23.294;2023-08-07T06:55:52;94279.41;;;26.64;42.18
11971;BME280;6045;42.682;23.294;2023-08-07T06:58:19;94288.13;;;26.45;43.86
11971;BME280;6045;42.682;23.294;2023-08-07T07:00:46;94284.44;;;26.74;42.75
11971;BME280;6045;42.682;23.294;2023-08-07T07:03:14;94284.13;;;27.20;43.39
11971;BME280;6045;42.682;23.294;2023-08-07T07:05:42;94282.44;;;27.64;42.58
11971;BME280;6045;42.682;23.294;2023-08-07T07:08:09;94277.34;;;27.90;40.91
11971;BME280;6045;42.682;23.294;2023-08-07T07:10:35;94271.56;;;28.19;41.30
11971;BME280;6045;42.682;23.294;2023-08-07T07:13:02;94275.03;;;28.16;39.36
11971;BME280;6045;42.682;23.294;2023-08-07T07:15:29;94273.28;;;28.24;40.69
11971;BME280;6045;42.682;23.294;2023-08-07T07:17:56;94271.25;;;28.48;39.71
11971;BME280;6045;42.682;23.294;2023-08-07T07:20:22;94272.25;;;28.56;39.90
11971;BME280;6045;42.682;23.294;2023-08-07T07:22:51;94276.84;;;28.80;39.86
11971;BME280;6045;42.682;23.294;2023-08-07T07:25:17;94265.16;;;28.98;40.10
11971;BME280;6045;42.682;23.294;2023-08-07T07:27:44;94265.78;;;28.92;38.32
11971;BME280;6045;42.682;23.294;2023-08-07T07:30:11;94263.97;;;28.99;38.53
11971;BME280;6045;42.682;23.294;2023-08-07T07:32:38;94271.78;;;29.25;38.75
11971;BME280;6045;42.682;23.294;2023-08-07T07:35:05;94266.53;;;29.36;37.64
11971;BME280;6045;42.682;23.294;2023-08-07T07:37:32;94263.31;;;29.34;37.37
11971;BME280;6045;42.682;23.294;2023-08-07T07:40:00;94258.16;;;29.48;35.83
11971;BME280;6045;42.682;23.294;2023-08-07T07:42:28;94259.59;;;29.26;36.14
11971;BME280;6045;42.682;23.294;2023-08-07T07:44:54;94269.28;;;29.36;37.14
11971;BME280;6045;42.682;23.294;2023-08-07T07:47:21;94266.44;;;29.32;37.77
11971;BME280;6045;42.682;23.294;2023-08-07T07:49:48;94265.44;;;29.40;38.36
11971;BME280;6045;42.682;23.294;2023-08-07T07:52:15;94264.91;;;29.50;36.77
11971;BME280;6045;42.682;23.294;2023-08-07T07:54:41;94256.97;;;29.64;36.89
11971;BME280;6045;42.682;23.294;2023-08-07T07:57:10;94260.53;;;29.81;37.39
11971;BME280;6045;42.682;23.294;2023-08-07T07:59:36;94263.91;;;30.09;38.39
11971;BME280;6045;42.682;23.294;2023-08-07T08:02:03;94258.19;;;30.17;37.13
11971;BME280;6045;42.682;23.294;2023-08-07T08:04:30;94255.22;;;30.07;36.44
11971;BME280;6045;42.682;23.294;2023-08-07T08:06:57;94258.03;;;29.91;37.73
11971;BME280;6045;42.682;23.294;2023-08-07T08:09:24;94257.72;;;29.77;36.11
11971;BME280;6045;42.682;23.294;2023-08-07T08:11:51;94249.94;;;29.83;36.73
11971;BME280;6045;42.682;23.294;2023-08-07T08:14:20;94258.03;;;29.75;37.63
11971;BME280;6045;42.682;23.294;2023-08-07T08:16:46;94257.72;;;29.96;36.87
11971;BME280;6045;42.682;23.294;2023-08-07T08:19:13;94256.16;;;30.14;36.64
11971;BME280;6045;42.682;23.294;2023-08-07T08:21:41;94249.16;;;30.36;34.98
11971;BME280;6045;42.682;23.294;2023-08-07T08:24:08;94244.81;;;30.77;33.44
11971;BME280;6045;42.682;23.294;2023-08-07T08:26:35;94244.91;;;30.80;35.26
11971;BME280;6045;42.682;23.294;2023-08-07T08:29:02;94238.09;;;31.16;34.72
11971;BME280;6045;42.682;23.294;2023-08-07T08:31:31;94244.81;;;31.41;32.45
11971;BME280;6045;42.682;23.294;2023-08-07T08:33:58;94244.56;;;31.72;32.39
11971;BME280;6045;42.682;23.294;2023-08-07T08:36:24;94239.34;;;31.94;31.92
11971;BME280;6045;42.682;23.294;2023-08-07T08:38:51;94233.81;;;31.94;31.96
11971;BME280;6045;42.682;23.294;2023-08-07T08:41:19;94230.66;;;31.69;32.74
11971;BME280;6045;42.682;23.294;2023-08-07T08:43:46;94239.59;;;31.59;33.00
11971;BME280;6045;42.682;23.294;2023-08-07T08:46:14;94238.00;;;31.58;31.57
11971;BME280;6045;42.682;23.294;2023-08-07T08:48:49;94243.22;;;31.40;33.25
11971;BME280;6045;42.682;23.294;2023-08-07T08:51:16;94231.25;;;31.33;32.56
11971;BME280;6045;42.682;23.294;2023-08-07T08:53:45;94233.59;;;31.31;32.36
11971;BME280;6045;42.682;23.294;2023-08-07T08:56:12;94231.06;;;31.45;32.92
11971;BME280;6045;42.682;23.294;2023-08-07T08:58:42;94226.38;;;31.71;32.59
11971;BME280;6045;42.682;23.294;2023-08-07T09:01:09;94228.25;;;31.41;33.21
11971;BME280;6045;42.682;23.294;2023-08-07T09:06:24;94229.53;;;31.25;32.80
11971;BME280;6045;42.682;23.294;2023-08-07T09:08:52;94236.75;;;31.33;32.96
11971;BME280;6045;42.682;23.294;2023-08-07T09:11:20;94226.72;;;31.44;32.21
11971;BME280;6045;42.682;23.294;2023-08-07T09:13:48;94226.28;;;31.42;31.93
11971;BME280;6045;42.682;23.294;2023-08-07T09:16:16;94228.56;;;31.14;32.49
11971;BME280;6045;42.682;23.294;2023-08-07T09:18:43;94229.25;;;31.30;32.32
11971;BME280;6045;42.682;23.294;2023-08-07T09:21:11;94218.50;;;31.25;32.75
11971;BME280;6045;42.682;23.294;2023-08-07T09:23:43;94208.34;;;31.81;31.84
11971;BME280;6045;42.682;23.294;2023-08-07T09:26:10;94204.59;;;31.96;31.72
11971;BME280;6045;42.682;23.294;2023-08-07T09:28:37;94196.31;;;31.96;31.21
11971;BME280;6045;42.682;23.294;2023-08-07T09:31:06;94204.75;;;32.07;30.91
11971;BME280;6045;42.682;23.294;2023-08-07T09:33:34;94195.78;;;32.47;30.89
11971;BME280;6045;42.682;23.294;2023-08-07T09:36:02;94201.94;;;32.33;31.74
11971;BME280;6045;42.682;23.294;2023-08-07T09:38:29;94208.47;;;32.18;30.80
11971;BME280;6045;42.682;23.294;2023-08-07T09:40:59;94213.91;;;32.44;30.64
11971;BME280;6045;42.682;23.294;2023-08-07T09:43:28;94205.59;;;32.11;31.07
11971;BME280;6045;42.682;23.294;2023-08-07T09:46:02;94193.88;;;32.21;31.43
11971;BME280;6045;42.682;23.294;2023-08-07T09:48:29;94203.44;;;32.27;32.00
11971;BME280;6045;42.682;23.294;2023-08-07T09:51:00;94203.50;;;32.30;32.43
11971;BME280;6045;42.682;23.294;2023-08-07T09:53:29;94198.94;;;32.49;31.67
11971;BME280;6045;42.682;23.294;2023-08-07T09:55:56;94194.31;;;32.53;31.75
11971;BME280;6045;42.682;23.294;2023-08-07T09:58:24;94192.03;;;32.65;31.13
11971;BME280;6045;42.682;23.294;2023-08-07T10:00:52;94199.00;;;32.85;30.74
11971;BME280;6045;42.682;23.294;2023-08-07T10:03:21;94202.38;;;33.05;30.80
11971;BME280;6045;42.682;23.294;2023-08-07T10:05:50;94198.44;;;32.69;30.09
11971;BME280;6045;42.682;23.294;2023-08-07T10:08:18;94206.00;;;32.42;31.13
11971;BME280;6045;42.682;23.294;2023-08-07T10:10:46;94195.78;;;32.47;30.60
11971;BME280;6045;42.682;23.294;2023-08-07T10:13:13;94199.19;;;32.66;29.98
11971;BME280;6045;42.682;23.294;2023-08-07T10:15:41;94203.91;;;33.02;29.51
11971;BME280;6045;42.682;23.294;2023-08-07T10:18:09;94195.44;;;32.85;30.45
11971;BME280;6045;42.682;23.294;2023-08-07T10:20:36;94199.28;;;32.77;29.11
11971;BME280;6045;42.682;23.294;2023-08-07T10:23:07;94196.50;;;32.73;30.04
11971;BME280;6045;42.682;23.294;2023-08-07T10:25:34;94192.16;;;32.76;31.31
11971;BME280;6045;42.682;23.294;2023-08-07T10:28:03;94197.34;;;33.21;30.05
11971;BME280;6045;42.682;23.294;2023-08-07T10:30:33;94201.28;;;33.17;28.99
11971;BME280;6045;42.682;23.294;2023-08-07T10:33:02;94199.66;;;33.12;30.63
11971;BME280;6045;42.682;23.294;2023-08-07T10:35:30;94190.88;;;33.03;28.58
11971;BME280;6045;42.682;23.294;2023-08-07T10:38:05;94192.06;;;33.02;29.90
11971;BME280;6045;42.682;23.294;2023-08-07T10:40:32;94184.41;;;32.92;29.83
11971;BME280;6045;42.682;23.294;2023-08-07T10:43:12;94190.81;;;32.99;29.35
11971;BME280;6045;42.682;23.294;2023-08-07T10:45:39;94190.25;;;33.20;29.96
11971;BME280;6045;42.682;23.294;2023-08-07T10:48:08;94185.63;;;33.38;28.02
11971;BME280;6045;42.682;23.294;2023-08-07T10:50:49;94183.72;;;33.49;28.91
11971;BME280;6045;42.682;23.294;2023-08-07T10:53:19;94171.94;;;33.56;28.85
11971;BME280;6045;42.682;23.294;2023-08-07T10:55:47;94180.66;;;33.58;29.54
11971;BME280;6045;42.682;23.294;2023-08-07T10:58:24;94163.78;;;33.88;28.76
11971;BME280;6045;42.682;23.294;2023-08-07T11:00:52;94163.44;;;33.89;29.67
11971;BME280;6045;42.682;23.294;2023-08-07T11:03:42;94170.19;;;33.95;28.67
11971;BME280;6045;42.682;23.294;2023-08-07T11:06:09;94168.19;;;33.89;29.84
11971;BME280;6045;42.682;23.294;2023-08-07T11:08:37;94165.59;;;33.59;28.09
11971;BME280;6045;42.682;23.294;2023-08-07T11:11:04;94165.81;;;33.33;29.94
11971;BME280;6045;42.682;23.294;2023-08-07T11:13:31;94145.91;;;32.76;28.87
11971;BME280;6045;42.682;23.294;2023-08-07T11:15:58;94141.41;;;32.65;31.74
11971;BME280;6045;42.682;23.294;2023-08-07T11:18:26;94139.63;;;32.83;31.40
11971;BME280;6045;42.682;23.294;2023-08-07T11:20:55;94129.94;;;33.03;29.30
11971;BME280;6045;42.682;23.294;2023-08-07T11:23:23;94130.25;;;32.98;30.40
11971;BME280;6045;42.682;23.294;2023-08-07T11:25:50;94141.25;;;32.91;31.02
11971;BME280;6045;42.682;23.294;2023-08-07T11:28:18;94135.50;;;33.06;30.92
11971;BME280;6045;42.682;23.294;2023-08-07T11:30:45;94141.53;;;33.19;29.38
11971;BME280;6045;42.682;23.294;2023-08-07T11:33:12;94138.69;;;33.08;30.30
11971;BME280;6045;42.682;23.294;2023-08-07T11:35:41;94126.94;;;33.26;30.75
11971;BME280;6045;42.682;23.294;2023-08-07T11:38:09;94130.34;;;33.59;30.75
11971;BME280;6045;42.682;23.294;2023-08-07T11:40:36;94125.78;;;33.95;29.90
11971;BME280;6045;42.682;23.294;2023-08-07T11:43:03;94116.28;;;33.89;28.72
11971;BME280;6045;42.682;23.294;2023-08-07T11:45:30;94129.19;;;33.60;29.96
11971;BME280;6045;42.682;23.294;2023-08-07T11:47:57;94126.19;;;33.94;29.93
11971;BME280;6045;42.682;23.294;2023-08-07T11:50:24;94125.09;;;34.09;28.81
11971;BME280;6045;42.682;23.294;2023-08-07T11:52:51;94126.69;;;34.13;28.73
11971;BME280;6045;42.682;23.294;2023-08-07T11:55:20;94129.91;;;34.26;28.90
11971;BME280;6045;42.682;23.294;2023-08-07T11:57:46;94121.16;;;34.17;27.50
11971;BME280;6045;42.682;23.294;2023-08-07T12:00:14;94133.09;;;34.24;28.12
11971;BME280;6045;42.682;23.294;2023-08-07T12:02:42;94129.91;;;34.26;28.04
11971;BME280;6045;42.682;23.294;2023-08-07T12:05:10;94126.13;;;33.83;28.70
11971;BME280;6045;42.682;23.294;2023-08-07T12:07:38;94111.19;;;33.40;29.95
11971;BME280;6045;42.682;23.294;2023-08-07T12:10:06;94118.97;;;33.17;29.69
11971;BME280;6045;42.682;23.294;2023-08-07T12:12:37;94117.38;;;33.20;31.32
11971;BME280;6045;42.682;23.294;2023-08-07T12:15:07;94113.34;;;33.10;31.06
11971;BME280;6045;42.682;23.294;2023-08-07T12:17:35;94107.25;;;32.90;30.18
11971;BME280;6045;42.682;23.294;2023-08-07T12:20:04;94106.50;;;32.97;30.44
11971;BME280;6045;42.682;23.294;2023-08-07T12:22:32;94096.84;;;33.24;30.36
11971;BME280;6045;42.682;23.294;2023-08-07T12:24:58;94098.84;;;33.31;31.07
11971;BME280;6045;42.682;23.294;2023-08-07T12:27:25;94107.72;;;32.99;30.92
11971;BME280;6045;42.682;23.294;2023-08-07T12:29:53;94101.22;;;32.81;31.68
11971;BME280;6045;42.682;23.294;2023-08-07T12:32:20;94104.19;;;32.59;32.06
11971;BME280;6045;42.682;23.294;2023-08-07T12:34:47;94099.81;;;32.21;32.09
11971;BME280;6045;42.682;23.294;2023-08-07T12:37:15;94107.25;;;31.84;32.25
11971;BME280;6045;42.682;23.294;2023-08-07T12:39:42;94108.47;;;31.86;33.04
11971;BME280;6045;42.682;23.294;2023-08-07T12:42:09;94114.31;;;32.11;32.61
11971;BME280;6045;42.682;23.294;2023-08-07T12:44:36;94105.19;;;32.07;30.65
11971;BME280;6045;42.682;23.294;2023-08-07T12:47:05;94110.16;;;32.27;31.28
11971;BME280;6045;42.682;23.294;2023-08-07T12:49:31;94114.13;;;32.26;33.47
11971;BME280;6045;42.682;23.294;2023-08-07T12:51:58;94113.38;;;32.33;32.33
11971;BME280;6045;42.682;23.294;2023-08-07T12:54:25;94124.72;;;32.21;33.00
11971;BME280;6045;42.682;23.294;2023-08-07T12:56:54;94125.59;;;32.28;33.18
11971;BME280;6045;42.682;23.294;2023-08-07T12:59:21;94122.66;;;32.48;32.61
11971;BME280;6045;42.682;23.294;2023-08-07T13:01:48;94112.84;;;32.54;32.79
11971;BME280;6045;42.682;23.294;2023-08-07T13:04:16;94122.41;;;32.63;32.17
11971;BME280;6045;42.682;23.294;2023-08-07T13:06:44;94133.00;;;32.54;33.38